Terminal Aerodrome Forecast
Issued by NWS Mt. Holly, NJ

Home | Current Version | Previous Version | Text Only | Print | Product List | Glossary On
Versions: 1 2 3 4 5 6 7 8 9 10 11 12 13 14 15
000
FTUS41 KPHI 261909 AAA
TAFACY
TAF AMD
KACY 261909Z 2619/2718 18010KT P6SM SCT250
     FM270400 19004KT P6SM BKN100
      TEMPO 2709/2712 5SM BR
     FM271400 21008KT P6SM SCT100
     FM271700 18010G18KT P6SM SCT045=

USA.gov is the U.S. government's official web portal to all federal, state and local government web resources and services.